METAR Data
IDs: Format: Raw Decoded Include TAF

Data at: 0633 UTC 23 Feb 2019

PAEM 230556Z AUTO 16024G31KT 10SM BKN011 OVC030 00/M01 A2997 RMK AO2 PK WND 16036/0457 UPE18 SLP207 P0000 60000 T00001011 10011 20000 50002 FZRANO
PAEM 230456Z AUTO 16027G31KT 10SM UP OVC009 00/M01 A2997 RMK AO2 PK WND 18035/0427 UPB25SNE03 SLP207 P0000 T00001011 FZRANO
PAEM 230356Z AUTO 17025G34KT 7SM -SN OVC007 00/M01 A2996 RMK AO2 PK WND 17036/0309 RAB02E05SNB05 CIG 006V010 SLP206 P0000 T00001011 FZRANO
PAEM 230352Z AUTO 17028G34KT 4SM -SN BR OVC007 00/M01 A2996 RMK AO2 PK WND 17036/0309 RAB02E05SNB05 CIG 006V010 P0000 FZRANO
PAEM 230337Z AUTO 16025G32KT 2SM -SN BR OVC009 00/M01 A2996 RMK AO2 PK WND 17036/0309 RAB02E05SNB05 CIG 006V010 P0000 FZRANO
PAEM 230314Z AUTO 17026G36KT 1 3/4SM -SN BR OVC009 00/M01 A2997 RMK AO2 PK WND 17036/0309 RAB02E05SNB05 P0000 FZRANO
PAEM 230256Z AUTO 17027G35KT 10SM OVC009 01/M01 A2996 RMK AO2 PK WND 16036/0202 SLP204 60000 T00061011 53003 FZRANO
PAEM 230156Z AUTO 17029G37KT 10SM OVC009 01/M01 A2995 RMK AO2 PK WND 17037/0156 SLP202 T00061006 FZRANO
PAEM 230056Z AUTO 17027G33KT 10SM BKN009 OVC038 01/M01 A2995 RMK AO2 PK WND 18038/0046 RAB06E22SNE06 SLP202 P0000 T00111006 FZRANO
PAEM 222356Z AUTO 17027G38KT 4SM -SN BR OVC007 01/M01 A2995 RMK AO2 PK WND 17039/2306 CIG 005V009 SLP201 P0000 60000 T00061006 10006 20000 53001 FZRANO
PAEM 222318Z AUTO 17026G31KT 4SM -SN BR OVC005 01/M01 A2995 RMK AO2 PK WND 17039/2306 P0000 FZRANO
PAEM 222307Z AUTO 17028G39KT 2SM -SN BR OVC005 01/M01 A2994 RMK AO2 PK WND 17039/2306 VIS 1 3/4V3 P0000 FZRANO
PAEM 222256Z AUTO 17025G37KT 1 3/4SM -SN BR OVC005 01/M01 A2994 RMK AO2 PK WND 17037/2249 SLP199 P0000 T00061006 FZRANO
PAEM 222249Z AUTO 17028G37KT 2SM -SN BR OVC005 01/M01 A2995 RMK AO2 PK WND 17037/2249 P0000 FZRANO
PAEM 222156Z AUTO 17028G35KT 1 1/4SM -SN BR OVC005 01/M01 A2995 RMK AO2 PK WND 17037/2140 SLP201 P0000 T00061006 FZRANO
PAEM 222153Z AUTO 17028G35KT 1 1/4SM -SN BR OVC005 01/M01 A2994 RMK AO2 PK WND 17037/2140 P0000 FZRANO
PAEM 222133Z AUTO 17026G35KT 1SM -SN BR OVC005 01/M01 A2994 RMK AO2 PK WND 17037/2059 P0000 FZRANO
PAEM 222111Z AUTO 17027G35KT 1 1/4SM -SN BR OVC005 01/M01 A2994 RMK AO2 PK WND 17037/2059 P0000 FZRANO
PAEM 222056Z AUTO 17029G35KT 1SM -SN BR OVC005 00/M01 A2994 RMK AO2 PK WND 17036/2043 SLP196 P0000 60000 T00001006 53001 FZRANO
PAEM 222014Z AUTO 17027G34KT 3/4SM -SN BR OVC005 00/M01 A2993 RMK AO2 PK WND 17034/2005 P0000 FZRANO
PAEM 222005Z AUTO 17026G34KT 1/2SM SN FG OVC005 00/M01 A2994 RMK AO2 PK WND 17034/2005 P0000 FZRANO
PAEM 221956Z AUTO 17025G33KT 3/4SM -SN BR OVC005 00/M01 A2993 RMK AO2 PK WND 17034/1920 SLP196 P0000 T00001006 FZRANO
PAEM 221947Z AUTO 17027G33KT 3/4SM -SN BR OVC005 00/M01 A2993 RMK AO2 PK WND 17034/1920 P0000 FZRANO
PAEM 221940Z AUTO 17026G32KT 1/2SM -SN FG OVC005 00/M01 A2993 RMK AO2 PK WND 17034/1920 P0000 FZRANO
PAEM 221922Z AUTO 16027G34KT 3/4SM -SN BR OVC005 00/M01 A2993 RMK AO2 PK WND 17034/1920 P0000 FZRANO
PAEM 221912Z AUTO 16025G34KT 1SM -SN BR OVC005 00/M01 A2993 RMK AO2 PK WND 17034/1905 P0000 FZRANO
PAEM 221905Z AUTO 17025G34KT 3/4SM -SN BR OVC007 00/M01 A2993 RMK AO2 PK WND 17034/1905 P0000 FZRANO
PAEM 221856Z AUTO 16025G34KT 1/2SM -SN FG OVC007 00/M01 A2993 RMK AO2 PK WND 17034/1849 SLP194 P0000 T00001006 FZRANO
PAEM 221810Z AUTO 17027G31KT 3/4SM -SN BR OVC007 00/M01 A2994 RMK AO2 PK WND 16031/1809 P0000 FZRANO
PAEM 221756Z AUTO 16025G33KT 1 1/4SM -SN BR OVC007 00/M01 A2993 RMK AO2 PK WND 16034/1725 SLP196 P0000 60000 T00001011 10000 21011 56010 FZRANO
PAEM 221656Z AUTO 16026G31KT 1 1/4SM -SN BR OVC007 M01/M01 A2994 RMK AO2 PK WND 16036/1638 SLP198 P0000 T10061011 FZRANO
PAEM 221556Z AUTO 16026G31KT 1 1/2SM -SN BR OVC007 M01/M01 A2995 RMK AO2 PK WND 16031/1556 SLP203 P0000 T10061011 FZRANO
PAEM 221520Z AUTO 16025G31KT 1 1/2SM -SN BR OVC007 M01/M01 A2996 RMK AO2 PK WND 16031/1519 P0000 FZRANO
PAEM 221456Z AUTO 16023KT 2 1/2SM -SN BR OVC007 M01/M01 A2996 RMK AO2 PK WND 16031/1442 VIS 2V4 SLP206 P0000 60000 T10061011 58012 FZRANO
PAEM 221423Z AUTO 16022KT 2SM -SN BR OVC007 M01/M01 A2998 RMK AO2 PK WND 16029/1357 P0000 FZRANO
PAEM 221414Z AUTO 16022G28KT 3SM -SN BR OVC007 M01/M01 A2997 RMK AO2 PK WND 16029/1357 P0000 FZRANO
PAEM 221356Z AUTO 16023G30KT 2 1/2SM -SN BR OVC007 M01/M01 A2998 RMK AO2 PK WND 16030/1355 VIS 1 3/4V3 SLP210 P0000 T10061011 FZRANO
PAEM 221331Z AUTO 16022G28KT 2 1/2SM -SN BR OVC007 M01/M01 A2998 RMK AO2 PK WND 16029/1309 VIS 1 1/2V3 P0000 FZRANO
PAEM 221256Z AUTO 16020KT 5SM -SN BR OVC007 M01/M02 A2999 RMK AO2 PK WND 16029/1222 SLP215 P0000 T10061017 FZRANO
PAEM 221211Z AUTO 16020G27KT 3SM -SN BR OVC007 M01/M02 A3000 RMK AO2 PK WND 15027/1208 P0000 FZRANO
PAEM 221156Z AUTO 16021G27KT 2 1/2SM -SN BR OVC007 M01/M02 A3000 RMK AO2 PK WND 16027/1156 SLP219 P0000 60000 T10111017 11011 21044 56011 FZRANO
PAEM 221141Z AUTO 16021KT 2 1/2SM -SN BR OVC007 M01/M02 A3000 RMK AO2 PK WND 16026/1128 VIS 2V4 P0000 FZRANO
PAEM 221056Z AUTO 16019KT 8SM -SN OVC007 M01/M02 A3002 RMK AO2 SLP224 P0000 T10111022 FZRANO
PAEM 220956Z AUTO 16019KT 4SM -SN BR OVC007 M02/M03 A3002 RMK AO2 SLP224 P0000 T10221028 FZRANO
PAEM 220915Z AUTO 15017KT 3SM -SN BR BKN007 BKN045 OVC060 M02/M03 A3003 RMK AO2 P0000 FZRANO
PAEM 220906Z AUTO 16017KT 6SM -SN BR SCT007 BKN041 OVC060 M02/M03 A3003 RMK AO2 P0000 FZRANO
PAEM 220856Z AUTO 16016KT 6SM -SN BR BKN043 OVC050 M02/M03 A3003 RMK AO2 SLP230 P0000 60000 T10221033 56003 FZRANO
PAEM 220825Z AUTO 16017KT 6SM -SN BR SCT006 BKN031 OVC044 M03/M04 A3003 RMK AO2 P0000 FZRANO
PAEM 220812Z AUTO 16019KT 4SM -SN BR SCT006 BKN020 OVC030 M03/M04 A3004 RMK AO2 P0000 FZRANO
PAEM 220803Z AUTO 16017KT 4SM -SN BR BKN006 BKN013 OVC030 M03/M04 A3003 RMK AO2 P0000 FZRANO
PAEM 220756Z AUTO 16015KT 3SM -SN BR FEW006 BKN020 OVC027 M03/M04 A3003 RMK AO2 SLP230 P0000 T10331044 410171056 FZRANO
PAEM 220656Z AUTO 16012KT 6SM -SN BR SCT043 OVC055 M04/M06 A3003 RMK AO2 SNB13 SLP230 P0000 T10441061 FZRANO
PAEM 220556Z AUTO 16010KT 10SM OVC035 M04/M07 A3004 RMK AO2 SLP232 60000 T10441067 11017 21056 50001 FZRANO
PAEM 220456Z AUTO 18010KT 10SM FEW039 M05/M07 A3005 RMK AO2 SLP235 T10501067 FZRANO
PAEM 220356Z AUTO 19013KT 10SM CLR M04/M07 A3005 RMK AO2 SLP234 T10441067 FZRANO
PAEM 220256Z AUTO 20013KT 10SM OVC038 M02/M06 A3004 RMK AO2 SLP231 60000 T10221061 51018 FZRANO
PAEM 220156Z AUTO 21014KT 9SM OVC038 M02/M05 A3002 RMK AO2 SNB18E55 SLP226 P0000 T10171050 FZRANO
PAEM 220056Z AUTO 22015KT 10SM BKN040 M02/M04 A3000 RMK AO2 SLP220 T10171039 FZRANO
PAEM 220030Z AUTO 21011KT 10SM SCT022 BKN047 M03/M05 A3000 RMK AO2 FZRANO
PAEM 212356Z AUTO 22013KT 10SM OVC024 M02/M05 A2998 RMK AO2 SLP213 60000 T10171050 11017 21033 51020 FZRANO
PAEM 212325Z AUTO 23012KT 10SM BKN027 M02/M05 A2998 RMK AO2 FZRANO
PAEM 212256Z AUTO 23018G24KT 10SM SCT032 M02/M06 A2997 RMK AO2 SNE01 SLP208 P0000 T10221056 FZRANO
PAEM 212235Z AUTO 23015G22KT 10SM OVC030 M02/M06 A2996 RMK AO2 SNE01 P0000 FZRANO
PAEM 212156Z AUTO 23016KT 9SM -SN BKN024 OVC028 M02/M06 A2995 RMK AO2 SNE24B45 SLP203 P0000 T10221056 FZRANO
PAEM 212056Z AUTO 24012KT 9SM -SN OVC026 M03/M06 A2992 RMK AO2 SLP193 P0000 60000 T10281056 51031 FZRANO
PAEM 211956Z AUTO 24016G22KT 9SM -SN OVC024 M03/M06 A2990 RMK AO2 UPB16E41SNE16B41 SLP183 P0000 T10331061 FZRANO
PAEM 211941Z AUTO 23015KT 10SM -SN BKN024 OVC033 M03/M06 A2989 RMK AO2 UPB16E41SNE16B41 P0000 FZRANO
PAEM 211908Z AUTO 23018KT 8SM -SN OVC031 M03/M06 A2987 RMK AO2 P0000 FZRANO
PAEM 211856Z AUTO 24017KT 10SM -SN OVC029 M03/M07 A2986 RMK AO2 SLP173 P0000 T10331067 FZRANO